createdAt,value
2023-07-24T00:01:50.015Z,54.30
2023-07-24T00:04:16.654Z,54.20
2023-07-24T00:06:43.323Z,54.10
2023-07-24T00:09:10.101Z,54.00
2023-07-24T00:11:36.744Z,54.00
2023-07-24T00:14:03.386Z,54.00
2023-07-24T00:16:30.280Z,54.00
2023-07-24T00:18:57.125Z,54.10
2023-07-24T00:21:23.849Z,54.10
2023-07-24T00:23:50.622Z,54.20
2023-07-24T00:26:17.286Z,54.30
2023-07-24T00:28:43.929Z,54.40
2023-07-24T00:31:10.603Z,54.50
2023-07-24T00:33:37.305Z,54.70
2023-07-24T00:36:04.032Z,55.00
2023-07-24T00:38:30.686Z,55.10
2023-07-24T00:40:57.365Z,55.30
2023-07-24T00:43:24.052Z,55.50
2023-07-24T00:45:50.771Z,55.80
2023-07-24T00:48:17.598Z,56.00
2023-07-24T00:50:45.173Z,56.30
2023-07-24T00:53:13.255Z,56.40
2023-07-24T00:55:41.200Z,56.60
2023-07-24T00:58:08.017Z,56.70
2023-07-24T01:00:34.881Z,56.80
2023-07-24T01:03:01.664Z,57.00
2023-07-24T01:05:28.680Z,57.10
2023-07-24T01:07:55.436Z,57.30
2023-07-24T01:10:22.234Z,57.40
2023-07-24T01:13:07.740Z,57.50
2023-07-24T01:15:36.962Z,58.00
2023-07-24T01:18:11.712Z,57.40
2023-07-24T01:20:42.678Z,57.90
2023-07-24T01:23:23.723Z,58.10
2023-07-24T01:25:59.793Z,58.60
2023-07-24T01:28:27.532Z,58.90
2023-07-24T01:30:55.273Z,59.00
2023-07-24T01:33:23.505Z,59.50
2023-07-24T01:35:54.540Z,59.80
2023-07-24T01:38:22.152Z,60.10
2023-07-24T01:40:49.501Z,60.30
2023-07-24T01:43:16.266Z,60.40
2023-07-24T01:45:42.889Z,60.50
2023-07-24T01:48:09.714Z,60.50
2023-07-24T01:50:36.478Z,60.60
2023-07-24T01:53:03.142Z,60.90
2023-07-24T01:55:29.788Z,61.00
2023-07-24T01:57:56.494Z,61.10
2023-07-24T02:00:23.109Z,61.20
2023-07-24T02:02:49.738Z,61.40
2023-07-24T02:05:16.476Z,61.00
2023-07-24T02:07:43.148Z,61.00
2023-07-24T02:10:10.414Z,61.20
2023-07-24T02:12:37.160Z,61.50
2023-07-24T02:15:04.026Z,61.70
2023-07-24T02:17:30.694Z,61.80
2023-07-24T02:19:57.361Z,62.00
2023-07-24T02:22:24.705Z,62.20
2023-07-24T02:24:51.504Z,62.30
2023-07-24T02:27:35.580Z,62.50
2023-07-24T02:30:03.225Z,62.90
2023-07-24T02:32:29.957Z,62.80
2023-07-24T02:34:56.817Z,62.90
2023-07-24T02:37:23.525Z,63.10
2023-07-24T02:39:50.195Z,63.20
2023-07-24T02:42:16.844Z,63.30
2023-07-24T02:44:43.530Z,63.40
2023-07-24T02:47:10.159Z,63.60
2023-07-24T02:49:36.881Z,63.60
2023-07-24T02:52:03.789Z,63.70
2023-07-24T02:54:30.467Z,63.70
2023-07-24T02:56:57.199Z,63.80
2023-07-24T02:59:24.246Z,63.90
2023-07-24T03:01:50.990Z,63.90
2023-07-24T03:04:17.647Z,64.00
2023-07-24T03:06:44.372Z,64.00
2023-07-24T03:09:11.031Z,64.10
2023-07-24T03:11:37.687Z,64.10
2023-07-24T03:14:04.411Z,64.10
2023-07-24T03:16:31.453Z,64.10
2023-07-24T03:18:58.619Z,64.10
2023-07-24T03:21:25.295Z,64.10
2023-07-24T03:23:51.924Z,64.10
2023-07-24T03:26:18.593Z,64.20
2023-07-24T03:28:45.237Z,64.20
2023-07-24T03:31:12.040Z,64.30
2023-07-24T03:33:38.753Z,64.20
2023-07-24T03:36:05.753Z,64.30
2023-07-24T03:38:32.401Z,64.30
2023-07-24T03:40:59.057Z,64.40
2023-07-24T03:43:25.750Z,64.40
2023-07-24T03:45:52.386Z,64.40
2023-07-24T03:48:19.022Z,64.40
2023-07-24T03:50:45.648Z,64.50
2023-07-24T03:53:12.370Z,64.50
2023-07-24T03:55:39.085Z,64.60
2023-07-24T03:58:05.757Z,64.70
2023-07-24T04:00:32.444Z,64.70
2023-07-24T04:02:59.170Z,64.80
2023-07-24T04:05:26.126Z,64.90
2023-07-24T04:07:52.783Z,65.00
2023-07-24T04:10:19.429Z,65.10
2023-07-24T04:12:46.059Z,65.30
2023-07-24T04:15:12.710Z,65.40
2023-07-24T04:17:41.026Z,65.40
2023-07-24T04:20:08.352Z,65.60
2023-07-24T04:22:34.986Z,65.60
2023-07-24T04:25:01.795Z,65.60
2023-07-24T04:27:28.618Z,65.70
2023-07-24T04:29:55.234Z,65.80
2023-07-24T04:32:22.059Z,65.80
2023-07-24T04:34:48.743Z,65.90
2023-07-24T04:37:15.412Z,65.90
2023-07-24T04:39:42.131Z,65.90
2023-07-24T04:42:09.148Z,65.90
2023-07-24T04:44:35.803Z,65.70
2023-07-24T04:47:05.172Z,65.50
2023-07-24T04:49:33.489Z,65.40
2023-07-24T04:52:00.586Z,65.20
2023-07-24T04:54:27.238Z,65.00
2023-07-24T04:56:53.877Z,64.60
2023-07-24T04:59:20.538Z,64.10
2023-07-24T05:01:47.278Z,63.80
2023-07-24T05:04:13.999Z,63.50
2023-07-24T05:06:40.703Z,63.20
2023-07-24T05:09:07.382Z,62.50
2023-07-24T05:11:34.060Z,62.00
2023-07-24T05:14:00.771Z,61.70
2023-07-24T05:16:27.448Z,61.80
2023-07-24T05:18:54.173Z,61.70
2023-07-24T05:21:20.841Z,61.70
2023-07-24T05:23:47.465Z,61.60
2023-07-24T05:26:14.104Z,61.30
2023-07-24T05:28:40.859Z,60.90
2023-07-24T05:31:08.987Z,60.30
2023-07-24T05:33:35.723Z,59.80
2023-07-24T05:36:04.316Z,59.20
2023-07-24T05:38:31.629Z,58.50
2023-07-24T05:41:04.180Z,58.00
2023-07-24T05:43:32.030Z,57.30
2023-07-24T05:45:59.319Z,56.90
2023-07-24T05:48:26.634Z,56.30
2023-07-24T05:50:53.381Z,56.40
2023-07-24T05:53:20.093Z,56.20
2023-07-24T05:55:46.796Z,56.10
2023-07-24T05:58:13.683Z,56.10
2023-07-24T06:00:40.388Z,55.60
2023-07-24T06:03:08.702Z,55.60
2023-07-24T06:05:35.917Z,55.70
2023-07-24T06:08:02.625Z,55.80
2023-07-24T06:10:29.329Z,55.90
2023-07-24T06:12:56.068Z,55.80
2023-07-24T06:15:22.788Z,55.70
2023-07-24T06:17:51.060Z,55.80
2023-07-24T06:20:20.124Z,55.90
2023-07-24T06:22:46.764Z,55.70
2023-07-24T06:25:13.485Z,55.40
2023-07-24T06:27:40.140Z,55.20
2023-07-24T06:30:14.915Z,55.00
2023-07-24T06:32:42.764Z,54.90
2023-07-24T06:35:09.520Z,54.90
2023-07-24T06:37:36.296Z,54.80
2023-07-24T06:40:03.460Z,54.50
2023-07-24T06:42:30.172Z,54.30
2023-07-24T06:44:56.851Z,54.30
2023-07-24T06:47:23.546Z,54.20
2023-07-24T06:49:50.195Z,54.20
2023-07-24T06:52:17.041Z,54.00
2023-07-24T06:54:43.878Z,53.80
2023-07-24T06:57:11.221Z,53.50
2023-07-24T06:59:37.962Z,53.40
2023-07-24T07:02:05.061Z,53.10
2023-07-24T07:04:31.697Z,53.10
2023-07-24T07:06:58.325Z,53.00
2023-07-24T07:09:24.982Z,52.90
2023-07-24T07:11:51.625Z,52.80
2023-07-24T07:14:18.350Z,52.70
2023-07-24T07:16:45.517Z,52.70
2023-07-24T07:19:12.158Z,52.70
2023-07-24T07:21:38.842Z,52.70
2023-07-24T07:24:05.841Z,52.50
2023-07-24T07:26:32.691Z,52.60
2023-07-24T07:28:59.698Z,52.70
2023-07-24T07:31:26.510Z,52.60
2023-07-24T07:33:53.198Z,52.50
2023-07-24T07:36:19.837Z,52.30
2023-07-24T07:38:46.662Z,52.00
2023-07-24T07:41:13.405Z,51.70
2023-07-24T07:43:40.139Z,51.40
2023-07-24T07:46:06.863Z,51.10
2023-07-24T07:48:33.959Z,50.70
2023-07-24T07:51:00.766Z,50.60
2023-07-24T07:53:27.409Z,50.20
2023-07-24T07:56:01.091Z,49.70
2023-07-24T07:58:27.955Z,49.30
2023-07-24T08:00:54.820Z,49.20
2023-07-24T08:03:21.916Z,49.20
2023-07-24T08:05:48.780Z,49.20
2023-07-24T08:08:15.456Z,49.40
2023-07-24T08:10:42.213Z,49.20
2023-07-24T08:13:08.892Z,48.90
2023-07-24T08:15:38.618Z,48.90
2023-07-24T08:18:06.319Z,48.80
2023-07-24T08:20:36.282Z,48.70
2023-07-24T08:23:03.038Z,48.50
2023-07-24T08:25:29.701Z,48.50
2023-07-24T08:28:05.134Z,48.50
2023-07-24T08:30:34.621Z,48.50
2023-07-24T08:33:01.946Z,49.10
2023-07-24T08:35:29.020Z,49.80
2023-07-24T08:37:55.686Z,50.40
2023-07-24T08:40:22.709Z,51.20
2023-07-24T08:42:51.784Z,51.80
2023-07-24T08:45:19.323Z,52.20
2023-07-24T08:47:46.561Z,52.90
2023-07-24T08:50:16.195Z,53.40
2023-07-24T08:52:44.332Z,53.90
2023-07-24T08:55:12.081Z,54.30
2023-07-24T08:57:38.823Z,54.60
2023-07-24T09:00:06.380Z,54.90
2023-07-24T09:02:34.529Z,55.20
2023-07-24T09:05:01.527Z,55.30
2023-07-24T09:07:28.321Z,55.50
2023-07-24T09:09:54.990Z,55.80
2023-07-24T09:12:23.891Z,56.00
2023-07-24T09:15:01.040Z,56.40
2023-07-24T09:17:27.759Z,56.50
2023-07-24T09:20:03.023Z,56.80
2023-07-24T09:22:29.726Z,57.20
2023-07-24T09:24:58.253Z,57.80
2023-07-24T09:27:32.521Z,58.00
2023-07-24T09:30:00.203Z,58.20
2023-07-24T09:32:28.565Z,58.50
2023-07-24T09:34:55.797Z,58.60
2023-07-24T09:37:31.260Z,58.50
2023-07-24T09:40:00.328Z,57.90
2023-07-24T09:42:32.128Z,57.80
2023-07-24T09:44:59.109Z,58.20
2023-07-24T09:47:51.068Z,57.90
2023-07-24T09:50:13.329Z,57.40
2023-07-24T09:52:43.061Z,57.20
2023-07-24T09:55:16.746Z,56.70
2023-07-24T09:57:46.043Z,56.80
2023-07-24T10:00:13.654Z,56.40
2023-07-24T10:02:41.497Z,56.00
2023-07-24T10:05:08.892Z,55.60
2023-07-24T10:07:36.031Z,55.30
2023-07-24T10:10:02.833Z,54.80
2023-07-24T10:12:32.265Z,54.30
2023-07-24T10:15:00.152Z,54.10
2023-07-24T10:17:40.918Z,53.70
2023-07-24T10:20:09.901Z,53.10
2023-07-24T10:22:38.902Z,52.50
2023-07-24T10:25:06.766Z,51.80
2023-07-24T10:27:37.768Z,51.60
2023-07-24T10:30:18.533Z,51.60
2023-07-24T10:32:54.023Z,51.20
2023-07-24T10:35:23.797Z,51.10
2023-07-24T10:38:00.931Z,50.50
2023-07-24T10:40:27.744Z,50.10
2023-07-24T10:43:21.731Z,49.90
2023-07-24T10:45:54.921Z,49.40
2023-07-24T10:48:23.217Z,49.50
2023-07-24T10:50:54.450Z,49.60
2023-07-24T10:53:23.093Z,49.70
2023-07-24T10:55:52.013Z,50.00
2023-07-24T10:58:18.777Z,50.20
2023-07-24T11:00:46.332Z,50.90
2023-07-24T11:03:13.909Z,51.20
2023-07-24T11:05:45.358Z,51.60
2023-07-24T11:08:16.387Z,52.00
2023-07-24T11:10:48.527Z,51.90
2023-07-24T11:13:16.663Z,52.10
2023-07-24T11:15:43.489Z,52.10
2023-07-24T11:18:10.323Z,52.10
2023-07-24T11:20:54.708Z,51.90
2023-07-24T11:23:21.376Z,52.00
2023-07-24T11:25:48.338Z,51.80
2023-07-24T11:28:16.087Z,51.80
2023-07-24T11:30:44.109Z,51.80
2023-07-24T11:33:19.219Z,51.80
2023-07-24T11:35:46.684Z,51.80
2023-07-24T11:38:14.364Z,51.80
2023-07-24T11:40:45.248Z,51.70
2023-07-24T11:43:19.895Z,52.10
2023-07-24T11:45:52.955Z,52.80
2023-07-24T11:48:20.729Z,53.10
2023-07-24T11:50:52.229Z,53.40
2023-07-24T11:53:28.904Z,53.60
2023-07-24T11:55:57.515Z,53.80
2023-07-24T11:58:26.903Z,54.00
2023-07-24T12:00:54.145Z,53.80
2023-07-24T12:03:22.862Z,53.90
2023-07-24T12:05:50.961Z,53.90
2023-07-24T12:08:20.200Z,53.90
2023-07-24T12:10:47.026Z,53.80
2023-07-24T12:13:13.744Z,53.70
2023-07-24T12:15:40.453Z,53.60
2023-07-24T12:18:07.725Z,53.50
2023-07-24T12:20:35.828Z,53.50
2023-07-24T12:23:02.660Z,53.50
2023-07-24T12:25:29.517Z,53.60
2023-07-24T12:27:56.218Z,53.50
2023-07-24T12:30:23.034Z,53.40
2023-07-24T12:32:49.768Z,53.10
2023-07-24T12:35:17.607Z,53.00
2023-07-24T12:37:45.246Z,52.60
2023-07-24T12:40:12.486Z,52.20
2023-07-24T12:42:39.251Z,51.70
2023-07-24T12:45:06.750Z,51.20
2023-07-24T12:47:34.156Z,50.90
2023-07-24T12:50:02.064Z,50.70
2023-07-24T12:52:30.282Z,50.70
2023-07-24T12:55:02.322Z,50.60
2023-07-24T12:57:29.495Z,50.20
2023-07-24T12:59:56.207Z,50.10
2023-07-24T13:02:22.867Z,50.10
2023-07-24T13:04:49.584Z,50.00
2023-07-24T13:07:16.868Z,49.60
2023-07-24T13:09:43.583Z,49.20
2023-07-24T13:12:10.833Z,49.00
2023-07-24T13:14:39.253Z,48.60
2023-07-24T13:17:07.978Z,48.40
2023-07-24T13:19:34.674Z,48.40
2023-07-24T13:22:01.326Z,48.00
2023-07-24T13:24:28.015Z,48.00
2023-07-24T13:26:54.726Z,47.30
2023-07-24T13:29:23.759Z,47.20
2023-07-24T13:31:53.344Z,47.30
2023-07-24T13:34:20.774Z,47.20
2023-07-24T13:36:48.253Z,47.20
2023-07-24T13:39:14.966Z,47.20
2023-07-24T13:41:41.783Z,46.80
2023-07-24T13:44:08.688Z,46.40
2023-07-24T13:46:38.110Z,45.90
2023-07-24T13:49:06.640Z,45.70
2023-07-24T13:51:33.379Z,45.40
2023-07-24T13:54:02.168Z,45.30
2023-07-24T13:56:31.141Z,45.20
2023-07-24T13:58:57.831Z,45.20
2023-07-24T14:01:24.558Z,45.20
2023-07-24T14:03:51.330Z,45.10
2023-07-24T14:06:18.151Z,45.00
2023-07-24T14:08:44.806Z,45.00
2023-07-24T14:11:11.479Z,45.30
2023-07-24T14:13:38.163Z,45.30
2023-07-24T14:16:04.916Z,45.10
2023-07-24T14:18:31.593Z,45.00
2023-07-24T14:21:00.444Z,45.10
2023-07-24T14:23:27.136Z,45.10
2023-07-24T14:25:53.788Z,44.90
2023-07-24T14:28:20.464Z,44.80
2023-07-24T14:30:47.150Z,45.00
2023-07-24T14:33:13.979Z,45.00
2023-07-24T14:35:40.684Z,44.80
2023-07-24T14:38:07.445Z,44.70
2023-07-24T14:40:34.130Z,44.80
2023-07-24T14:43:00.787Z,44.70
2023-07-24T14:45:27.511Z,45.00
2023-07-24T14:47:54.255Z,45.00
2023-07-24T14:50:20.955Z,45.00
2023-07-24T14:52:47.671Z,45.10
2023-07-24T14:55:15.782Z,45.10
2023-07-24T14:57:42.450Z,45.00
2023-07-24T15:00:09.707Z,45.20
2023-07-24T15:02:36.471Z,45.40
2023-07-24T15:05:03.482Z,45.40
2023-07-24T15:07:30.502Z,45.40
2023-07-24T15:09:57.427Z,45.60
2023-07-24T15:12:24.126Z,45.50
2023-07-24T15:14:50.795Z,45.30
2023-07-24T15:17:19.410Z,45.10
2023-07-24T15:19:46.140Z,44.90
2023-07-24T15:22:12.822Z,45.10
2023-07-24T15:24:41.552Z,45.30
2023-07-24T15:27:09.924Z,45.50
2023-07-24T15:29:39.990Z,45.50
2023-07-24T15:32:07.371Z,45.60
2023-07-24T15:34:35.890Z,45.60
2023-07-24T15:37:04.892Z,45.50
2023-07-24T15:39:31.693Z,45.60
2023-07-24T15:41:58.425Z,45.70
2023-07-24T15:44:25.087Z,46.00
2023-07-24T15:46:51.810Z,46.20
2023-07-24T15:49:18.560Z,46.30
2023-07-24T15:51:45.245Z,46.50
2023-07-24T15:54:11.983Z,46.40
2023-07-24T15:56:41.979Z,46.60
2023-07-24T15:59:10.542Z,46.90
2023-07-24T16:01:37.279Z,47.10
2023-07-24T16:04:04.093Z,47.40
2023-07-24T16:06:30.748Z,47.80
2023-07-24T16:08:58.354Z,50.30
2023-07-24T16:11:24.992Z,52.60
2023-07-24T16:13:51.629Z,54.00
2023-07-24T16:16:19.393Z,55.30
2023-07-24T16:18:46.115Z,56.70
2023-07-24T16:21:12.771Z,57.60
2023-07-24T16:23:39.536Z,58.30
2023-07-24T16:26:06.292Z,58.80
2023-07-24T16:28:32.933Z,59.30
2023-07-24T16:31:00.049Z,60.00
2023-07-24T16:33:26.843Z,60.40
2023-07-24T16:35:53.618Z,60.60
2023-07-24T16:38:20.385Z,60.70
2023-07-24T16:40:47.189Z,61.10
2023-07-24T16:43:13.837Z,61.60
2023-07-24T16:45:40.535Z,61.90
2023-07-24T16:48:07.432Z,62.20
2023-07-24T16:50:36.223Z,62.40
2023-07-24T16:53:04.463Z,62.70
2023-07-24T16:55:31.183Z,62.90
2023-07-24T16:57:58.028Z,62.80
2023-07-24T17:00:24.788Z,63.00
2023-07-24T17:02:51.603Z,63.10
2023-07-24T17:05:18.529Z,63.20
2023-07-24T17:07:45.250Z,63.50
2023-07-24T17:10:12.248Z,63.30
2023-07-24T17:12:38.897Z,63.50
2023-07-24T17:15:06.980Z,63.10
2023-07-24T17:17:33.998Z,63.20
2023-07-24T17:20:00.862Z,62.90
2023-07-24T17:22:27.508Z,62.70
2023-07-24T17:24:54.188Z,62.90
2023-07-24T17:27:21.079Z,62.80
2023-07-24T17:29:47.753Z,62.80
2023-07-24T17:32:14.653Z,62.60
2023-07-24T17:34:44.182Z,62.60
2023-07-24T17:37:14.166Z,62.70
2023-07-24T17:39:45.014Z,63.10
2023-07-24T17:42:11.640Z,63.20
2023-07-24T17:44:38.612Z,63.50
2023-07-24T17:47:05.261Z,63.70
2023-07-24T17:49:31.929Z,63.70
2023-07-24T17:51:58.639Z,63.70
2023-07-24T17:54:25.267Z,63.80
2023-07-24T17:56:51.907Z,63.80
2023-07-24T17:59:18.544Z,64.00
2023-07-24T18:01:45.256Z,64.20
2023-07-24T18:04:11.969Z,64.40
2023-07-24T18:06:38.600Z,64.50
2023-07-24T18:09:06.342Z,64.70
2023-07-24T18:11:33.320Z,64.90
2023-07-24T18:14:00.197Z,65.00
2023-07-24T18:16:26.995Z,65.10
2023-07-24T18:18:53.727Z,65.40
2023-07-24T18:21:20.980Z,65.50
2023-07-24T18:23:47.686Z,65.60
2023-07-24T18:26:14.427Z,65.60
2023-07-24T18:28:41.061Z,65.60
2023-07-24T18:31:08.632Z,65.50
2023-07-24T18:33:35.337Z,65.60
2023-07-24T18:36:02.135Z,65.60
2023-07-24T18:38:28.800Z,65.80
2023-07-24T18:40:55.468Z,65.90
2023-07-24T18:43:22.224Z,66.00
2023-07-24T18:45:48.921Z,66.10
2023-07-24T18:48:16.011Z,66.30
2023-07-24T18:50:44.435Z,66.40
2023-07-24T18:53:12.155Z,66.50
2023-07-24T18:55:40.978Z,66.70
2023-07-24T18:58:07.696Z,66.80
2023-07-24T19:00:34.352Z,66.90
2023-07-24T19:03:01.144Z,66.90
2023-07-24T19:05:27.873Z,67.10
2023-07-24T19:07:54.561Z,67.10
2023-07-24T19:10:21.292Z,67.20
2023-07-24T19:12:48.044Z,67.40
2023-07-24T19:15:14.762Z,67.60
2023-07-24T19:17:43.670Z,67.60
2023-07-24T19:20:13.737Z,67.70
2023-07-24T19:22:40.759Z,67.90
2023-07-24T19:25:07.992Z,67.80
2023-07-24T19:27:35.168Z,67.90
2023-07-24T19:30:03.851Z,67.90
2023-07-24T19:32:31.011Z,68.00
2023-07-24T19:34:57.885Z,68.10
2023-07-24T19:37:24.758Z,68.10
2023-07-24T19:39:51.401Z,68.20
2023-07-24T19:42:18.043Z,68.30
2023-07-24T19:44:44.682Z,68.40
2023-07-24T19:47:11.411Z,68.50
2023-07-24T19:49:41.536Z,68.60
2023-07-24T19:52:08.452Z,68.70
2023-07-24T19:54:35.206Z,68.80
2023-07-24T19:57:01.899Z,68.80
2023-07-24T19:59:29.039Z,68.90
2023-07-24T20:01:57.034Z,69.00
2023-07-24T20:04:23.926Z,69.20
2023-07-24T20:06:50.759Z,69.10
2023-07-24T20:09:17.516Z,69.20
2023-07-24T20:11:45.718Z,69.30
2023-07-24T20:14:14.376Z,69.40
2023-07-24T20:16:41.107Z,69.50
2023-07-24T20:19:07.854Z,69.60
2023-07-24T20:21:34.560Z,69.60
2023-07-24T20:24:12.339Z,69.70
2023-07-24T20:26:39.462Z,69.90
2023-07-24T20:29:06.465Z,69.70
2023-07-24T20:31:33.458Z,69.60
2023-07-24T20:34:00.480Z,69.50
2023-07-24T20:36:27.159Z,69.50
2023-07-24T20:38:53.839Z,69.60
2023-07-24T20:41:20.552Z,69.70
2023-07-24T20:43:47.246Z,69.80
2023-07-24T20:46:15.655Z,69.90
2023-07-24T20:48:43.015Z,70.00
2023-07-24T20:51:21.400Z,70.10
2023-07-24T20:53:48.755Z,70.30
2023-07-24T20:56:15.656Z,70.20
2023-07-24T20:58:42.489Z,70.30
2023-07-24T21:01:10.305Z,70.40
2023-07-24T21:03:37.060Z,70.50
2023-07-24T21:06:04.055Z,70.50
2023-07-24T21:08:30.842Z,70.60
2023-07-24T21:10:57.537Z,70.80
2023-07-24T21:13:24.210Z,70.90
2023-07-24T21:15:55.542Z,70.90
2023-07-24T21:18:22.572Z,71.00
2023-07-24T21:20:49.269Z,71.10
2023-07-24T21:23:15.991Z,71.10
2023-07-24T21:25:55.495Z,71.20
2023-07-24T21:28:25.360Z,71.40
2023-07-24T21:30:52.475Z,71.30
2023-07-24T21:33:19.630Z,71.30
2023-07-24T21:35:46.325Z,71.40
2023-07-24T21:38:13.253Z,71.40
2023-07-24T21:40:40.701Z,71.50
2023-07-24T21:43:08.563Z,71.60
2023-07-24T21:45:35.364Z,71.70
2023-07-24T21:48:05.041Z,71.80
2023-07-24T21:50:31.749Z,71.80
2023-07-24T21:52:58.401Z,71.90
2023-07-24T21:55:25.057Z,72.00
2023-07-24T21:57:51.881Z,72.10
2023-07-24T22:00:18.621Z,72.20
2023-07-24T22:02:45.363Z,72.30
2023-07-24T22:05:12.570Z,72.30
2023-07-24T22:07:39.231Z,72.30
2023-07-24T22:10:06.511Z,72.40
2023-07-24T22:12:33.887Z,72.40
2023-07-24T22:15:00.839Z,72.40
2023-07-24T22:17:29.281Z,72.40
2023-07-24T22:19:56.771Z,72.40
2023-07-24T22:22:24.281Z,72.50
2023-07-24T22:24:51.105Z,72.50
2023-07-24T22:27:17.966Z,72.60
2023-07-24T22:29:44.754Z,72.60
2023-07-24T22:32:11.507Z,72.60
2023-07-24T22:34:38.178Z,72.70
2023-07-24T22:37:06.834Z,72.80
2023-07-24T22:39:34.395Z,72.80
2023-07-24T22:42:02.203Z,72.80
2023-07-24T22:44:29.246Z,72.90
2023-07-24T22:46:56.031Z,72.90
2023-07-24T22:49:23.093Z,73.00
2023-07-24T22:51:49.748Z,73.00
2023-07-24T22:54:16.328Z,73.00
2023-07-24T22:56:43.282Z,72.80
2023-07-24T22:59:24.322Z,72.70
2023-07-24T23:01:53.001Z,73.00
2023-07-24T23:04:23.064Z,72.90
2023-07-24T23:06:50.432Z,73.00
2023-07-24T23:09:17.161Z,73.10
2023-07-24T23:11:43.791Z,73.20
2023-07-24T23:14:10.526Z,73.10
2023-07-24T23:16:37.231Z,72.90
2023-07-24T23:19:03.990Z,72.90
2023-07-24T23:21:30.894Z,73.00
2023-07-24T23:23:58.039Z,73.10
2023-07-24T23:26:24.677Z,73.00
2023-07-24T23:28:56.993Z,73.00
2023-07-24T23:31:23.945Z,73.10
2023-07-24T23:33:50.620Z,73.00
2023-07-24T23:36:17.317Z,73.10
2023-07-24T23:38:44.000Z,73.10
2023-07-24T23:41:10.678Z,73.10
2023-07-24T23:43:37.310Z,73.10
2023-07-24T23:46:11.924Z,73.10
2023-07-24T23:48:39.498Z,73.10
2023-07-24T23:51:12.489Z,73.10
2023-07-24T23:53:39.056Z,73.10
2023-07-24T23:56:05.729Z,72.90
2023-07-24T23:58:32.527Z,72.90
